createdAt,value
2019-01-18T00:01:00.406Z,100833.39
2019-01-18T00:07:06.479Z,100844.72
2019-01-18T00:13:13.998Z,100850.85
2019-01-18T00:19:19.983Z,100852.52
2019-01-18T00:25:26.161Z,100862.85
2019-01-18T00:31:32.469Z,100864.21
2019-01-18T00:37:38.659Z,100868.02
2019-01-18T00:43:44.919Z,100889.91
2019-01-18T00:49:50.723Z,100894.11
2019-01-18T00:55:56.456Z,100908.88
2019-01-18T01:02:02.473Z,100915.23
2019-01-18T01:08:08.497Z,100914.56
2019-01-18T01:14:14.392Z,100926.64
2019-01-18T01:20:22.624Z,100937.96
2019-01-18T01:26:28.601Z,100943.78
2019-01-18T01:32:35.775Z,100958.23
2019-01-18T01:38:41.517Z,100970.28
2019-01-18T01:44:47.257Z,100980.86
2019-01-18T01:50:52.969Z,100989.23
2019-01-18T01:56:58.853Z,101006.25
2019-01-18T02:03:08.224Z,101019.94
2019-01-18T02:09:14.004Z,101032.39
2019-01-18T02:15:23.196Z,101041.69
2019-01-18T02:21:29.137Z,101043.30
2019-01-18T02:27:35.122Z,101057.41
2019-01-18T02:33:41.293Z,101071.95
2019-01-18T02:39:47.270Z,101078.52
2019-01-18T02:45:55.853Z,101086.30
2019-01-18T02:52:01.713Z,101099.91
2019-01-18T02:58:08.985Z,101102.57
2019-01-18T03:04:16.752Z,101107.83
2019-01-18T03:10:31.271Z,101122.44
2019-01-18T03:16:37.760Z,101136.81
2019-01-18T03:22:43.988Z,101136.70
2019-01-18T03:28:49.749Z,101135.57
2019-01-18T03:34:55.695Z,101144.69
2019-01-18T03:41:01.742Z,101150.52
2019-01-18T03:47:08.040Z,101167.52
2019-01-18T03:53:13.742Z,101181.89
2019-01-18T03:59:19.789Z,101190.82
2019-01-18T04:05:26.286Z,101206.11
2019-01-18T04:11:32.441Z,101209.54
2019-01-18T04:17:39.528Z,101221.59
2019-01-18T04:23:47.871Z,101222.97
2019-01-18T04:29:53.907Z,101234.83
2019-01-18T04:35:59.803Z,101251.33
2019-01-18T04:42:05.929Z,101247.98
2019-01-18T04:48:12.460Z,101255.46
2019-01-18T04:54:18.266Z,101257.00
2019-01-18T05:00:26.928Z,101246.97
2019-01-18T05:06:34.274Z,101246.76
2019-01-18T05:12:40.500Z,101252.69
2019-01-18T05:18:46.449Z,101261.11
2019-01-18T05:24:55.063Z,101274.52
2019-01-18T05:31:01.544Z,101285.70
2019-01-18T05:37:07.275Z,101292.92
2019-01-18T05:43:13.106Z,101301.77
2019-01-18T05:49:19.348Z,101311.14
2019-01-18T05:55:28.406Z,101317.16
2019-01-18T06:01:34.340Z,101321.87
2019-01-18T06:07:40.269Z,101343.36
2019-01-18T06:13:46.105Z,101350.47
2019-01-18T06:19:53.373Z,101362.91
2019-01-18T06:25:59.141Z,101374.45
2019-01-18T06:32:05.271Z,101383.03
2019-01-18T06:38:11.193Z,101387.48
2019-01-18T06:44:16.922Z,101389.19
2019-01-18T06:50:23.460Z,101397.88
2019-01-18T06:56:33.659Z,101397.23
2019-01-18T07:02:41.326Z,101410.63
2019-01-18T07:08:47.399Z,101415.13
2019-01-18T07:14:53.500Z,101420.96
2019-01-18T07:21:02.560Z,101432.98
2019-01-18T07:27:08.643Z,101431.95
2019-01-18T07:33:18.697Z,101431.79
2019-01-18T07:39:24.428Z,101430.84
2019-01-18T07:45:33.103Z,101433.06
2019-01-18T07:51:39.016Z,101434.36
2019-01-18T07:57:44.988Z,101439.88
2019-01-18T08:03:50.758Z,101439.81
2019-01-18T08:09:56.563Z,101460.27
2019-01-18T08:16:02.389Z,101471.06
2019-01-18T08:22:08.381Z,101477.77
2019-01-18T08:28:14.552Z,101485.25
2019-01-18T08:34:20.350Z,101483.70
2019-01-18T08:40:36.047Z,101487.05
2019-01-18T08:46:42.302Z,101490.07
2019-01-18T08:52:48.424Z,101495.91
2019-01-18T08:58:54.504Z,101501.33
2019-01-18T09:05:06.049Z,101506.88
2019-01-18T09:11:11.861Z,101515.67
2019-01-18T09:17:17.913Z,101518.20
2019-01-18T09:23:23.694Z,101529.28
2019-01-18T09:29:29.633Z,101543.05
2019-01-18T09:35:36.337Z,101545.03
2019-01-18T09:41:42.495Z,101548.37
2019-01-18T09:47:50.018Z,101560.14
2019-01-18T09:53:58.699Z,101571.95
2019-01-18T10:00:06.510Z,101576.63
2019-01-18T10:06:12.427Z,101589.61
2019-01-18T10:12:18.277Z,101597.90
2019-01-18T10:18:26.330Z,101601.05
2019-01-18T10:24:32.760Z,101603.55
2019-01-18T10:30:40.750Z,101600.15
2019-01-18T10:36:47.012Z,101599.59
2019-01-18T10:42:56.516Z,101594.68
2019-01-18T10:49:02.767Z,101605.12
2019-01-18T10:55:09.644Z,101604.95
2019-01-18T11:01:17.283Z,101607.09
2019-01-18T11:07:25.009Z,101608.94
2019-01-18T11:13:33.808Z,101610.66
2019-01-18T11:19:39.578Z,101609.99
2019-01-18T11:25:45.718Z,101600.00
2019-01-18T11:31:51.761Z,101587.77
2019-01-18T11:37:59.920Z,101590.30
2019-01-18T11:44:17.193Z,101585.51
2019-01-18T11:50:27.785Z,101580.18
2019-01-18T11:56:33.743Z,101578.42
2019-01-18T12:02:39.970Z,101574.14
2019-01-18T12:08:48.368Z,101570.81
2019-01-18T12:14:54.282Z,101568.10
2019-01-18T12:21:00.264Z,101570.94
2019-01-18T12:27:06.489Z,101559.59
2019-01-18T12:33:12.439Z,101551.63
2019-01-18T12:39:40.251Z,101554.17
2019-01-18T12:45:47.030Z,101548.92
2019-01-18T12:51:53.023Z,101540.19
2019-01-18T12:57:58.956Z,101533.77
2019-01-18T13:04:08.254Z,101534.27
2019-01-18T13:10:12.652Z,101535.80
2019-01-18T13:16:33.072Z,101525.08
2019-01-18T13:22:38.930Z,101521.98
2019-01-18T13:28:44.807Z,101514.69
2019-01-18T13:34:50.868Z,101519.77
2019-01-18T13:40:56.854Z,101512.47
2019-01-18T13:47:02.936Z,101510.41
2019-01-18T13:53:08.852Z,101522.02
2019-01-18T13:59:14.819Z,101523.12
2019-01-18T14:05:26.135Z,101531.23
2019-01-18T14:11:34.753Z,101529.28
2019-01-18T14:17:40.656Z,101529.47
2019-01-18T14:23:46.449Z,101532.69
2019-01-18T14:29:52.613Z,101535.91
2019-01-18T14:35:58.549Z,101528.53
2019-01-18T14:42:06.094Z,101531.70
2019-01-18T14:48:14.950Z,101536.56
2019-01-18T14:54:22.997Z,101526.93
2019-01-18T15:00:33.534Z,101536.03
2019-01-18T15:06:39.520Z,101532.72
2019-01-18T15:12:49.106Z,101529.55
2019-01-18T15:18:58.006Z,101530.97
2019-01-18T15:25:03.844Z,101523.27
2019-01-18T15:31:09.592Z,101527.67
2019-01-18T15:37:15.492Z,101528.25
2019-01-18T15:43:22.992Z,101531.08
2019-01-18T15:49:29.840Z,101534.94
2019-01-18T15:55:37.153Z,101540.44
2019-01-18T16:01:43.054Z,101537.03
2019-01-18T16:07:48.800Z,101531.31
2019-01-18T16:13:54.613Z,101525.56
2019-01-18T16:20:02.308Z,101525.49
2019-01-18T16:26:08.249Z,101524.41
2019-01-18T16:32:14.426Z,101520.36
2019-01-18T16:38:20.198Z,101520.86
2019-01-18T16:44:26.027Z,101521.73
2019-01-18T16:50:31.798Z,101520.16
2019-01-18T16:56:37.609Z,101512.42
2019-01-18T17:02:45.312Z,101512.75
2019-01-18T17:08:52.611Z,101512.88
2019-01-18T17:14:59.057Z,101513.71
2019-01-18T17:21:06.098Z,101516.81
2019-01-18T17:27:11.940Z,101514.67
2019-01-18T17:33:17.970Z,101516.03
2019-01-18T17:40:23.320Z,101518.88
2019-01-18T17:47:31.602Z,101515.31
2019-01-18T17:54:07.970Z,101506.22
2019-01-18T18:01:30.919Z,101517.34
2019-01-18T18:08:27.519Z,101510.80
2019-01-18T18:15:15.749Z,101518.80
2019-01-18T18:22:26.056Z,101515.55
2019-01-18T18:29:30.922Z,101507.98
2019-01-18T18:36:49.355Z,101508.39
2019-01-18T18:43:42.428Z,101517.06
2019-01-18T18:50:59.011Z,101507.94
2019-01-18T18:58:09.084Z,101512.78
2019-01-18T19:05:10.492Z,101512.92
2019-01-18T19:11:48.425Z,101511.41
2019-01-18T19:19:11.072Z,101502.74
2019-01-18T19:25:58.211Z,101498.98
2019-01-18T19:32:49.550Z,101495.31
2019-01-18T19:39:39.399Z,101498.05
2019-01-18T19:46:44.017Z,101493.27
2019-01-18T19:53:20.870Z,101493.61
2019-01-18T20:00:37.167Z,101488.37
2019-01-18T20:07:41.550Z,101492.17
2019-01-18T20:14:28.299Z,101494.44
2019-01-18T20:21:31.500Z,101492.17
2019-01-18T20:28:36.917Z,101487.87
2019-01-18T20:35:47.458Z,101487.95
2019-01-18T20:42:59.839Z,101485.98
2019-01-18T20:49:49.238Z,101485.78
2019-01-18T20:56:47.707Z,101482.11
2019-01-18T21:03:32.419Z,101485.59
2019-01-18T21:10:39.118Z,101481.23
2019-01-18T21:17:45.266Z,101478.64
2019-01-18T21:24:34.616Z,101483.73
2019-01-18T21:31:23.139Z,101484.37
2019-01-18T21:38:43.074Z,101490.05
2019-01-18T21:45:47.577Z,101489.26
2019-01-18T21:53:22.842Z,101481.73
2019-01-18T22:00:34.976Z,101480.21
2019-01-18T22:07:24.124Z,101478.28
2019-01-18T22:14:30.720Z,101484.71
2019-01-18T22:21:43.779Z,101481.62
2019-01-18T22:28:43.577Z,101487.34
2019-01-18T22:35:38.535Z,101493.18
2019-01-18T22:42:44.312Z,101493.69
2019-01-18T22:49:34.681Z,101495.39
2019-01-18T22:56:10.070Z,101500.48
2019-01-18T23:02:43.675Z,101492.48
2019-01-18T23:09:29.859Z,101494.39
2019-01-18T23:16:39.255Z,101495.38
2019-01-18T23:23:20.946Z,101490.98
2019-01-18T23:29:59.283Z,101479.42
2019-01-18T23:36:54.905Z,101479.09
2019-01-18T23:43:39.920Z,101480.25
2019-01-18T23:50:55.749Z,101474.98
2019-01-18T23:57:57.716Z,101479.19
